Time;durP1;ratioP1;P1;durP2;ratioP2;P2;SDS_P1;SDS_P2;PMS_P1;PMS_P2;Temp;Humidity;BMP_temperature;BMP_pressure;BME280_temperature;BME280_humidity;BME280_pressure;Samples;Min_cycle;Max_cycle;Signal;HPM_P1;HPM_P2
2023/08/29 00:00:05;;;;;;;7.15;4.45;;;;;;;24.06;50.60;99294.22;5108346;28;20530;-31
2023/08/29 00:02:32;;;;;;;6.63;4.28;;;;;;;24.15;50.39;99282.47;5108488;28;20110;-30
2023/08/29 00:05:00;;;;;;;8.40;4.82;;;;;;;24.09;50.99;99278.34;5108632;28;20040;-30
2023/08/29 00:07:25;;;;;;;;;;;;;;;24.03;51.67;99278.56;5108435;27;20030;-30
2023/08/29 00:09:52;;;;;;;8.93;4.77;;;;;;;24.11;51.17;99287.81;5099122;28;19916;-33
2023/08/29 00:12:20;;;;;;;6.88;4.65;;;;;;;24.02;51.10;99290.56;5088339;28;20262;-30
2023/08/29 00:14:46;;;;;;;8.50;4.60;;;;;;;23.99;51.63;99288.50;5087856;28;20028;-30
2023/08/29 00:17:16;;;;;;;7.57;4.70;;;;;;;23.76;52.29;99287.09;5087929;28;20024;-30
2023/08/29 00:19:42;;;;;;;9.63;5.03;;;;;;;23.75;52.75;99285.53;5087766;28;20031;-30
2023/08/29 00:22:07;;;;;;;8.48;4.20;;;;;;;23.76;53.10;99292.56;5088105;28;20028;-31
2023/08/29 00:24:33;;;;;;;9.23;4.57;;;;;;;23.69;52.85;99292.28;5088072;28;20078;-33
2023/08/29 00:26:58;;;;;;;6.25;4.25;;;;;;;23.70;52.77;99288.41;5088044;28;20028;-32
2023/08/29 00:29:26;;;;;;;7.82;4.90;;;;;;;23.73;52.74;99295.94;5087686;28;20412;-31
2023/08/29 00:31:52;;;;;;;7.20;4.20;;;;;;;23.77;52.36;99295.00;5097679;27;20042;-29
2023/08/29 00:34:17;;;;;;;7.47;4.50;;;;;;;23.47;53.22;99296.81;5096979;28;20028;-29
2023/08/29 00:36:43;;;;;;;7.75;4.50;;;;;;;23.78;53.63;99298.50;5088059;28;20028;-29
2023/08/29 00:39:08;;;;;;;7.90;4.70;;;;;;;23.50;53.01;99312.50;5086413;28;20056;-32
2023/08/29 00:41:33;;;;;;;8.75;5.00;;;;;;;23.45;53.18;99299.84;5087669;28;20419;-29
2023/08/29 00:44:01;;;;;;;7.03;4.35;;;;;;;23.49;53.25;99299.19;5087535;28;20032;-29
2023/08/29 00:46:27;;;;;;;8.40;5.10;;;;;;;23.66;52.59;99297.25;5087656;28;20024;-29
2023/08/29 00:48:54;;;;;;;9.55;4.90;;;;;;;23.31;53.91;99299.22;5087599;28;20044;-29
2023/08/29 00:51:20;;;;;;;10.30;4.60;;;;;;;23.27;54.14;99303.72;5087341;28;20028;-31
2023/08/29 00:53:45;;;;;;;9.68;4.95;;;;;;;23.09;54.54;99288.53;5086891;28;20067;-29
2023/08/29 00:56:12;;;;;;;7.43;4.50;;;;;;;22.99;54.67;99281.50;5087225;28;20024;-29
2023/08/29 00:58:39;;;;;;;6.85;4.63;;;;;;;23.08;54.84;99290.47;5087526;28;20048;-30
2023/08/29 01:01:04;;;;;;;10.32;4.82;;;;;;;23.17;54.60;99293.97;5087279;28;20032;-29
2023/08/29 01:03:30;;;;;;;8.70;4.93;;;;;;;23.18;54.38;99290.13;5087388;28;20047;-29
2023/08/29 01:05:58;;;;;;;9.70;4.78;;;;;;;23.08;54.73;99287.75;5087300;28;20058;-29
2023/08/29 01:08:24;;;;;;;7.60;4.72;;;;;;;23.01;55.11;99292.84;5089765;28;20039;-30
2023/08/29 01:11:11;;;;;;;6.97;4.55;;;;;;;23.01;55.25;99280.06;5095416;28;20028;-29
2023/08/29 01:13:47;;;;;;;7.72;4.57;;;;;;;22.99;55.59;99286.94;5087081;28;20036;-28
2023/08/29 01:16:17;;;;;;;6.38;4.47;;;;;;;23.08;56.23;99278.78;5087055;28;20119;-29
2023/08/29 01:18:44;;;;;;;7.97;4.72;;;;;;;22.84;56.14;99280.84;5087249;28;20088;-28
2023/08/29 01:21:21;;;;;;;7.80;4.85;;;;;;;22.99;55.65;99284.22;5086804;28;20035;-29
2023/08/29 01:23:57;;;;;;;8.07;4.53;;;;;;;22.90;56.14;99281.47;5086755;28;20028;-29
2023/08/29 01:26:25;;;;;;;7.45;4.95;;;;;;;22.79;56.68;99288.38;5086640;28;20035;-31
2023/08/29 01:28:50;;;;;;;8.00;5.10;;;;;;;22.89;57.26;99284.53;5096128;27;20036;-30
2023/08/29 01:31:17;;;;;;;7.97;4.97;;;;;;;22.89;58.10;99282.59;5098273;28;20412;-29
2023/08/29 01:33:43;;;;;;;7.25;5.00;;;;;;;23.11;57.35;99286.28;5086401;28;20021;-29
2023/08/29 01:36:08;;;;;;;7.85;4.95;;;;;;;23.23;57.14;99286.44;5086882;28;20077;-32
2023/08/29 01:38:34;;;;;;;8.50;5.10;;;;;;;23.18;57.66;99284.69;5086542;28;20024;-29
2023/08/29 01:40:59;;;;;;;6.90;5.32;;;;;;;23.37;55.82;99286.25;5086312;28;20028;-29
2023/08/29 01:43:24;;;;;;;9.77;5.45;;;;;;;23.14;57.55;99293.81;5086263;28;20035;-29
2023/08/29 01:45:50;;;;;;;8.57;5.00;;;;;;;23.11;58.34;99295.28;5086124;28;20028;-29
2023/08/29 01:48:16;;;;;;;7.97;5.03;;;;;;;22.97;57.10;99283.72;5086217;28;20044;-29
2023/08/29 01:50:42;;;;;;;9.05;6.35;;;;;;;23.03;57.61;99282.47;5086022;28;20481;-30
2023/08/29 01:53:08;;;;;;;9.00;5.13;;;;;;;22.89;58.04;99284.53;5086654;28;20100;-28
2023/08/29 01:55:35;;;;;;;9.45;4.90;;;;;;;22.37;57.94;99267.06;5085990;28;20446;-29
2023/08/29 01:58:03;;;;;;;9.88;5.65;;;;;;;22.28;58.95;99268.94;5086088;28;20708;-31
2023/08/29 02:00:30;;;;;;;;;;;;;;;21.95;59.90;99269.31;5086352;28;20085;-31
2023/08/29 02:02:55;;;;;;;8.02;5.30;;;;;;;21.95;60.57;99274.75;5086031;28;19916;-30
2023/08/29 02:05:21;;;;;;;9.77;5.35;;;;;;;22.28;58.98;99263.53;5085699;28;20039;-29
2023/08/29 02:07:46;;;;;;;8.63;5.30;;;;;;;22.49;59.39;99269.13;5087183;28;20034;-29
2023/08/29 02:10:12;;;;;;;6.50;4.65;;;;;;;22.45;59.27;99271.72;5096619;28;20027;-30
2023/08/29 02:12:37;;;;;;;8.38;4.95;;;;;;;22.63;58.20;99274.44;5106559;28;20031;-29
2023/08/29 02:15:05;;;;;;;8.88;5.10;;;;;;;22.37;58.92;99269.78;5106023;28;20043;-30
2023/08/29 02:17:30;;;;;;;8.85;5.43;;;;;;;22.13;61.16;99272.06;5106594;28;20031;-29
2023/08/29 02:19:55;;;;;;;10.10;5.65;;;;;;;22.04;60.45;99275.56;5105747;28;20027;-29
2023/08/29 02:22:21;;;;;;;7.25;5.50;;;;;;;22.29;59.31;99273.25;5106215;28;20389;-29
2023/08/29 02:24:47;;;;;;;7.10;5.15;;;;;;;22.42;59.82;99271.53;5100102;28;20038;-29
2023/08/29 02:27:14;;;;;;;8.55;5.95;;;;;;;22.51;60.56;99274.25;5096973;28;20023;-29
2023/08/29 02:29:39;;;;;;;9.73;5.38;;;;;;;22.63;59.34;99271.72;5094958;28;20084;-30
2023/08/29 02:32:05;;;;;;;8.13;5.00;;;;;;;22.62;59.71;99267.41;5095354;28;20478;-29
2023/08/29 02:34:30;;;;;;;16.40;5.40;;;;;;;22.46;60.48;99278.72;5106433;28;20047;-29
2023/08/29 02:36:55;;;;;;;9.90;5.35;;;;;;;22.59;59.91;99266.13;5105951;28;20122;-31
2023/08/29 02:39:21;;;;;;;6.97;4.78;;;;;;;22.52;60.30;99275.88;5105796;28;20027;-29
2023/08/29 02:41:47;;;;;;;7.50;4.72;;;;;;;22.06;61.44;99278.75;5105582;28;20028;-29
2023/08/29 02:44:12;;;;;;;6.65;4.72;;;;;;;22.16;61.42;99276.88;5104506;28;20032;-29
2023/08/29 02:46:38;;;;;;;8.32;4.90;;;;;;;22.34;60.05;99273.13;5106079;28;20028;-29
2023/08/29 02:49:06;;;;;;;9.07;4.72;;;;;;;21.98;61.86;99271.38;5105662;28;20096;-31
2023/08/29 02:51:31;;;;;;;7.80;4.63;;;;;;;22.28;58.87;99271.66;5105886;28;20023;-30
2023/08/29 02:53:56;;;;;;;8.95;5.22;;;;;;;21.93;59.58;99276.97;5105577;28;20036;-30
2023/08/29 02:56:22;;;;;;;9.90;5.35;;;;;;;21.49;61.43;99275.94;5105713;28;20027;-30
2023/08/29 02:58:47;;;;;;;7.50;4.95;;;;;;;21.41;62.96;99266.63;5105853;28;20020;-31
2023/08/29 03:01:13;;;;;;;10.75;5.50;;;;;;;21.23;62.63;99257.59;5105756;28;20023;-30
2023/08/29 03:03:39;;;;;;;9.68;5.45;;;;;;;20.70;64.96;99255.63;5105499;28;20028;-29
2023/08/29 03:06:04;;;;;;;10.48;5.40;;;;;;;20.82;64.33;99255.88;5105446;28;20023;-30
2023/08/29 03:08:30;;;;;;;7.90;5.15;;;;;;;20.96;64.08;99263.13;5101358;28;20039;-30
2023/08/29 03:10:56;;;;;;;10.48;5.40;;;;;;;21.20;65.39;99268.25;5097499;28;20531;-30
2023/08/29 03:13:22;;;;;;;8.40;4.95;;;;;;;21.73;62.72;99267.47;5105595;28;20028;-30
2023/08/29 03:15:48;;;;;;;9.23;4.95;;;;;;;21.76;62.48;99271.44;5105144;28;20678;-30
2023/08/29 03:18:14;;;;;;;6.97;5.03;;;;;;;22.03;62.01;99276.69;5105454;28;20079;-30
2023/08/29 03:20:41;;;;;;;10.18;5.10;;;;;;;22.01;62.45;99272.69;5103544;28;20035;-30
2023/08/29 03:23:06;;;;;;;8.52;5.38;;;;;;;22.17;61.84;99279.28;5095709;28;20031;-31
2023/08/29 03:25:31;;;;;;;9.10;5.50;;;;;;;22.10;61.47;99273.50;5091019;28;20028;-30
2023/08/29 03:27:57;;;;;;;9.73;5.68;;;;;;;22.11;61.68;99277.00;5090439;28;20028;-30
2023/08/29 03:30:27;;;;;;;11.77;5.47;;;;;;;21.91;62.02;99264.81;5084999;28;20031;-31
2023/08/29 03:32:53;;;;;;;9.65;4.80;;;;;;;21.99;62.66;99273.00;5085100;28;20036;-29
2023/08/29 03:35:19;;;;;;;11.85;5.25;;;;;;;22.02;61.50;99277.78;5084990;28;20039;-29
2023/08/29 03:37:45;;;;;;;11.25;5.70;;;;;;;22.12;61.75;99273.19;5084628;28;20424;-30
2023/08/29 03:40:11;;;;;;;6.50;4.90;;;;;;;22.29;61.08;99261.59;5085013;28;20031;-30
2023/08/29 03:42:37;;;;;;;10.00;5.50;;;;;;;22.21;61.09;99263.13;5085079;28;20055;-30
2023/08/29 03:45:03;;;;;;;14.55;5.75;;;;;;;21.86;62.42;99263.03;5084835;28;20028;-29
2023/08/29 03:47:29;;;;;;;12.00;5.38;;;;;;;21.71;61.42;99249.91;5084518;28;20115;-29
2023/08/29 03:49:54;;;;;;;10.55;5.60;;;;;;;21.37;63.40;99237.72;5084721;28;20107;-29
2023/08/29 03:52:24;;;;;;;10.15;5.57;;;;;;;21.79;62.37;99251.84;5084922;28;20794;-29
2023/08/29 03:54:51;;;;;;;8.80;5.60;;;;;;;21.26;63.46;99251.53;5084573;28;20039;-29
2023/08/29 03:57:17;;;;;;;11.73;6.15;;;;;;;20.93;64.43;99247.50;5084923;28;20610;-30
2023/08/29 03:59:42;;;;;;;8.25;5.93;;;;;;;20.42;65.69;99238.59;5084502;28;20123;-32
2023/08/29 04:02:08;;;;;;;8.68;5.80;;;;;;;20.31;65.81;99242.63;5084705;28;20035;-29
2023/08/29 04:04:34;;;;;;;12.73;6.18;;;;;;;20.59;66.35;99243.38;5084803;28;20024;-30
2023/08/29 04:06:59;;;;;;;7.15;5.82;;;;;;;21.04;64.75;99252.38;5084921;28;20036;-29
2023/08/29 04:09:25;;;;;;;12.02;6.72;;;;;;;21.56;63.41;99241.06;5096122;28;20038;-30
2023/08/29 04:11:50;;;;;;;11.23;5.78;;;;;;;21.66;62.90;99265.19;5084806;28;20036;-29
2023/08/29 04:14:16;;;;;;;11.35;5.85;;;;;;;21.81;62.95;99260.47;5084947;28;20726;-29
2023/08/29 04:16:41;;;;;;;9.30;6.10;;;;;;;21.48;62.78;99258.09;5087957;28;20031;-29
2023/08/29 04:19:07;;;;;;;9.88;6.10;;;;;;;21.12;63.70;99261.66;5088306;28;20035;-30
2023/08/29 04:21:32;;;;;;;10.68;5.95;;;;;;;21.21;64.00;99246.25;5099635;28;20020;-31
2023/08/29 04:23:59;;;;;;;9.40;5.90;;;;;;;21.13;64.86;99254.34;5101092;28;20058;-29
2023/08/29 04:26:25;;;;;;;9.77;6.15;;;;;;;20.76;65.11;99243.56;5108177;28;20035;-29
2023/08/29 04:28:50;;;;;;;11.32;6.78;;;;;;;20.70;66.23;99244.78;5108367;28;20101;-29
2023/08/29 04:31:17;;;;;;;11.40;6.05;;;;;;;20.81;66.30;99238.00;5108296;28;20059;-29
2023/08/29 04:33:43;;;;;;;9.60;6.25;;;;;;;20.86;65.71;99227.06;5108817;28;20031;-31
2023/08/29 04:36:08;;;;;;;9.57;6.07;;;;;;;21.39;65.56;99230.91;5108060;28;20024;-29
2023/08/29 04:38:36;;;;;;;13.68;6.57;;;;;;;21.49;64.13;99224.41;5107951;28;20030;-29
2023/08/29 04:41:03;;;;;;;8.63;5.55;;;;;;;21.60;63.88;99214.91;5107872;28;20030;-29
2023/08/29 04:43:29;;;;;;;10.00;6.55;;;;;;;21.63;63.75;99233.25;5107935;28;20415;-31
2023/08/29 04:45:54;;;;;;;11.52;6.68;;;;;;;21.73;63.74;99231.38;5108034;28;20552;-29
2023/08/29 04:48:22;;;;;;;14.57;6.10;;;;;;;21.61;63.77;99232.75;5107818;28;20431;-29
2023/08/29 04:50:47;;;;;;;;;;;;;;;21.42;64.85;99224.03;5108414;28;20035;-29
2023/08/29 04:53:13;;;;;;;7.77;5.80;;;;;;;21.59;64.57;99226.06;5107513;28;19918;-30
2023/08/29 04:55:40;;;;;;;11.55;6.60;;;;;;;21.82;63.03;99243.88;5107248;28;20378;-30
2023/08/29 04:58:06;;;;;;;9.85;6.22;;;;;;;21.85;63.55;99245.16;5107821;27;21203;-29
2023/08/29 05:00:31;;;;;;;9.73;5.45;;;;;;;22.15;62.68;99242.69;5107601;28;20038;-31
2023/08/29 05:02:57;;;;;;;8.85;5.95;;;;;;;22.40;61.78;99241.97;5107780;28;20035;-29
2023/08/29 05:05:22;;;;;;;8.60;5.75;;;;;;;22.59;60.99;99254.44;5107678;28;20067;-29
2023/08/29 05:07:48;;;;;;;12.55;6.35;;;;;;;22.59;61.33;99259.88;5104602;27;20038;-29
2023/08/29 05:10:13;;;;;;;8.95;6.47;;;;;;;22.68;60.75;99268.84;5096107;27;20574;-29
2023/08/29 05:12:41;;;;;;;10.70;6.43;;;;;;;22.51;61.38;99266.13;5097599;28;20420;-29
2023/08/29 05:15:07;;;;;;;8.40;5.75;;;;;;;22.90;60.12;99269.81;5087057;28;20016;-30
2023/08/29 05:17:32;;;;;;;11.38;6.15;;;;;;;22.98;59.50;99269.00;5098730;28;20039;-30
2023/08/29 05:19:58;;;;;;;10.18;5.80;;;;;;;23.12;61.31;99274.31;5089586;28;20081;-29
2023/08/29 05:22:23;;;;;;;10.38;6.38;;;;;;;23.10;59.90;99282.78;5095423;28;20529;-29
2023/08/29 05:24:49;;;;;;;10.02;6.15;;;;;;;23.20;58.97;99287.09;5086908;28;20024;-30
2023/08/29 05:27:14;;;;;;;10.27;6.68;;;;;;;23.09;59.75;99269.50;5086749;28;20704;-29
2023/08/29 05:29:41;;;;;;;9.73;6.45;;;;;;;23.34;58.54;99281.47;5086756;28;20032;-29
2023/08/29 05:32:06;;;;;;;12.20;6.88;;;;;;;23.12;59.05;99277.81;5086200;28;20043;-29
2023/08/29 05:34:32;;;;;;;11.57;6.13;;;;;;;23.05;59.38;99266.63;5086573;28;20046;-31
2023/08/29 05:36:57;;;;;;;10.32;6.32;;;;;;;23.42;58.87;99278.72;5086539;28;20095;-29
2023/08/29 05:39:23;;;;;;;10.68;7.13;;;;;;;23.55;58.40;99285.09;5086307;28;20024;-30
2023/08/29 05:41:49;;;;;;;9.60;6.22;;;;;;;23.74;57.42;99292.91;5086716;28;20034;-30
2023/08/29 05:44:15;;;;;;;9.82;6.85;;;;;;;23.76;57.98;99281.66;5086439;28;20109;-31
2023/08/29 05:46:40;;;;;;;10.00;6.55;;;;;;;23.92;56.14;99290.91;5085116;28;20066;-29
2023/08/29 05:49:06;;;;;;;9.70;6.53;;;;;;;23.85;56.59;99279.75;5086288;28;20579;-29
2023/08/29 05:51:33;;;;;;;10.45;6.57;;;;;;;24.17;56.00;99269.34;5086287;28;20034;-30
2023/08/29 05:53:59;;;;;;;11.43;6.70;;;;;;;24.00;56.44;99262.06;5086512;28;20047;-30
2023/08/29 05:56:25;;;;;;;10.55;7.28;;;;;;;24.22;55.97;99266.44;5100324;28;20040;-30
2023/08/29 05:58:53;;;;;;;11.52;6.22;;;;;;;24.15;55.07;99261.50;5088731;28;20087;-30
2023/08/29 06:01:19;;;;;;;12.02;6.68;;;;;;;24.53;54.64;99259.84;5089231;28;20044;-29
2023/08/29 06:03:44;;;;;;;12.48;7.22;;;;;;;24.45;54.13;99259.53;5094835;28;20024;-29
2023/08/29 06:06:10;;;;;;;10.98;6.53;;;;;;;24.72;54.94;99260.16;5085896;28;20462;-31
2023/08/29 06:08:38;;;;;;;11.23;6.25;;;;;;;24.82;53.78;99259.78;5096963;28;20435;-30
2023/08/29 06:11:04;;;;;;;8.15;6.13;;;;;;;24.74;54.11;99259.84;5086214;28;20024;-29
2023/08/29 06:13:29;;;;;;;11.63;6.97;;;;;;;24.95;52.33;99248.94;5085840;28;20028;-29
2023/08/29 06:15:55;;;;;;;9.55;6.03;;;;;;;25.30;52.37;99254.09;5095989;28;20039;-29
2023/08/29 06:18:21;;;;;;;10.82;7.20;;;;;;;25.48;50.68;99251.94;5093262;28;20035;-29
2023/08/29 06:20:46;;;;;;;19.50;12.25;;;;;;;25.34;50.44;99261.25;5091597;28;20032;-33
2023/08/29 06:23:13;;;;;;;15.68;7.30;;;;;;;25.55;50.37;99266.63;5085985;28;20020;-29
2023/08/29 06:25:38;;;;;;;10.00;5.10;;;;;;;25.74;49.71;99262.56;5085724;28;20115;-32
2023/08/29 06:28:04;;;;;;;8.20;4.97;;;;;;;25.73;49.38;99256.31;5085539;28;20488;-29
2023/08/29 06:30:30;;;;;;;13.02;6.30;;;;;;;25.84;49.15;99259.38;5085809;28;20580;-31
2023/08/29 06:32:57;;;;;;;6.95;4.30;;;;;;;26.09;48.96;99267.63;5085679;28;20111;-30
2023/08/29 06:35:22;;;;;;;16.60;4.45;;;;;;;26.06;48.65;99260.91;5085728;28;20110;-31
2023/08/29 06:37:48;;;;;;;8.50;4.47;;;;;;;26.14;48.49;99270.91;5084078;28;20035;-30
2023/08/29 06:40:14;;;;;;;8.85;4.25;;;;;;;26.11;48.63;99259.88;5088200;28;20030;-29
2023/08/29 06:42:40;;;;;;;7.88;4.65;;;;;;;26.18;48.23;99260.91;5094406;28;20020;-29
2023/08/29 06:45:06;;;;;;;11.18;5.07;;;;;;;26.01;48.03;99261.94;5085370;28;20024;-30
2023/08/29 06:47:32;;;;;;;6.68;4.40;;;;;;;26.39;47.70;99265.44;5085411;28;20016;-29
2023/08/29 06:49:57;;;;;;;9.40;4.40;;;;;;;26.58;48.84;99256.63;5085151;28;20039;-30
2023/08/29 06:52:23;;;;;;;9.10;4.10;;;;;;;26.68;46.75;99253.41;5087758;28;20019;-29
2023/08/29 06:54:49;;;;;;;8.40;3.92;;;;;;;26.63;45.71;99245.47;5093998;28;20024;-30
2023/08/29 06:57:14;;;;;;;8.52;4.38;;;;;;;27.10;45.02;99244.03;5085357;28;20028;-29
2023/08/29 06:59:39;;;;;;;6.00;3.92;;;;;;;27.08;45.31;99252.59;5085319;28;20029;-29
2023/08/29 07:02:06;;;;;;;7.57;4.30;;;;;;;26.99;43.60;99254.66;5085097;28;20042;-30
2023/08/29 07:04:33;;;;;;;8.68;4.40;;;;;;;26.98;44.24;99253.09;5085204;28;20032;-29
2023/08/29 07:06:59;;;;;;;7.30;3.47;;;;;;;26.78;43.89;99244.72;5085049;28;20034;-31
2023/08/29 07:09:27;;;;;;;6.90;4.20;;;;;;;27.09;43.65;99237.75;5085163;28;20028;-29
2023/08/29 07:11:53;;;;;;;8.55;4.40;;;;;;;27.12;42.60;99231.59;5085244;28;20027;-31
2023/08/29 07:14:18;;;;;;;7.88;4.55;;;;;;;27.28;43.68;99239.03;5096670;28;20028;-32
2023/08/29 07:16:44;;;;;;;8.45;4.10;;;;;;;27.48;43.13;99232.53;5096921;28;20047;-29
2023/08/29 07:19:11;;;;;;;8.30;4.63;;;;;;;27.59;42.03;99241.81;5091124;28;20055;-30
2023/08/29 07:21:37;;;;;;;6.53;4.00;;;;;;;27.47;41.47;99235.66;5104935;28;20606;-31
2023/08/29 07:24:06;;;;;;;7.22;3.83;;;;;;;27.78;41.59;99234.84;5105353;28;20032;-29
2023/08/29 07:26:31;;;;;;;9.10;4.30;;;;;;;27.72;41.17;99220.59;5105047;28;20023;-30
2023/08/29 07:28:56;;;;;;;9.57;4.40;;;;;;;28.12;40.85;99235.28;5105342;28;20416;-29
2023/08/29 07:31:26;;;;;;;6.88;3.83;;;;;;;28.33;40.25;99216.53;5105450;28;20027;-30
2023/08/29 07:33:52;;;;;;;6.35;4.05;;;;;;;28.61;39.89;99215.59;5105145;28;20456;-30
2023/08/29 07:36:17;;;;;;;12.00;4.90;;;;;;;28.68;38.78;99215.72;5105482;28;20032;-30
2023/08/29 07:38:43;;;;;;;9.48;4.57;;;;;;;28.79;38.86;99216.75;5105054;28;20039;-30
2023/08/29 07:41:08;;;;;;;8.05;4.70;;;;;;;29.05;37.82;99226.25;5105256;28;20043;-29
2023/08/29 07:43:33;;;;;;;6.53;4.60;;;;;;;28.96;37.82;99220.97;5105407;28;20042;-29
2023/08/29 07:45:59;;;;;;;8.32;5.00;;;;;;;28.96;37.25;99226.47;5105170;28;20031;-30
2023/08/29 07:48:25;;;;;;;11.48;5.50;;;;;;;29.29;36.95;99210.63;5105356;28;20044;-29
2023/08/29 07:50:51;;;;;;;11.05;4.60;;;;;;;29.32;36.56;99204.38;5108876;28;20114;-30
2023/08/29 07:53:17;;;;;;;9.50;4.25;;;;;;;29.32;35.83;99205.19;5109491;28;20043;-31
2023/08/29 07:55:43;;;;;;;8.25;4.45;;;;;;;29.47;36.06;99205.44;5108769;28;20081;-32
2023/08/29 07:58:08;;;;;;;8.45;4.45;;;;;;;29.85;35.04;99209.97;5108921;28;21071;-29
2023/08/29 08:00:34;;;;;;;9.20;5.30;;;;;;;30.02;34.63;99205.94;5108648;28;20069;-29
2023/08/29 08:03:00;;;;;;;9.57;4.22;;;;;;;30.00;33.79;99206.28;5108754;28;20053;-29
2023/08/29 08:05:26;;;;;;;8.00;4.55;;;;;;;29.82;33.95;99194.25;5108412;28;20115;-29
2023/08/29 08:07:52;;;;;;;6.97;4.20;;;;;;;30.36;34.13;99201.31;5108664;28;20027;-31
2023/08/29 08:10:18;;;;;;;9.73;4.70;;;;;;;30.44;33.04;99205.75;5108514;28;20028;-30
2023/08/29 08:12:47;;;;;;;9.77;4.30;;;;;;;30.43;33.39;99197.88;5108837;28;20024;-30
2023/08/29 08:15:13;;;;;;;9.27;4.32;;;;;;;30.57;33.15;99198.03;5108505;28;20027;-31
2023/08/29 08:17:39;;;;;;;9.07;4.30;;;;;;;30.72;33.12;99190.72;5108482;28;20100;-30
2023/08/29 08:20:07;;;;;;;8.40;4.65;;;;;;;30.89;32.54;99185.84;5108242;28;20057;-30
2023/08/29 08:22:40;;;;;;;12.38;5.35;;;;;;;30.86;32.89;99178.31;5108185;28;20026;-29
2023/08/29 08:25:07;;;;;;;11.93;5.03;;;;;;;31.21;33.37;99170.41;5108049;28;20030;-29
2023/08/29 08:27:34;;;;;;;13.60;5.65;;;;;;;31.50;32.26;99175.41;5107797;28;20514;-31
2023/08/29 08:29:59;;;;;;;10.95;4.75;;;;;;;31.46;32.16;99172.63;5108259;28;20032;-30
2023/08/29 08:32:25;;;;;;;25.55;15.25;;;;;;;31.60;32.46;99161.69;5108012;28;20034;-30
2023/08/29 08:34:51;;;;;;;14.07;7.70;;;;;;;31.85;31.53;99169.34;5108567;28;20092;-29
2023/08/29 08:37:17;;;;;;;11.32;5.63;;;;;;;31.91;32.10;99154.00;5108241;28;20467;-29
2023/08/29 08:39:42;;;;;;;9.07;4.82;;;;;;;32.15;31.32;99146.31;5107920;28;20042;-30
2023/08/29 08:42:11;;;;;;;15.75;9.52;;;;;;;32.27;31.14;99137.69;5108046;28;20016;-30
2023/08/29 08:44:37;;;;;;;9.10;5.10;;;;;;;32.25;30.95;99123.50;5108189;28;20032;-30
2023/08/29 08:47:04;;;;;;;10.03;5.10;;;;;;;32.43;31.27;99127.09;5107899;28;20037;-31
2023/08/29 08:49:30;;;;;;;12.88;5.20;;;;;;;32.50;30.92;99133.81;5107735;28;20056;-31
2023/08/29 08:51:57;;;;;;;11.70;5.72;;;;;;;32.64;30.30;99133.88;5107811;28;20081;-29
2023/08/29 08:54:23;;;;;;;;;;;;;;;32.66;30.54;99123.25;5108309;28;20507;-30
2023/08/29 08:56:49;;;;;;;13.35;5.35;;;;;;;32.51;30.26;99121.59;5108089;28;19958;-30
2023/08/29 08:59:15;;;;;;;12.27;6.65;;;;;;;32.87;30.00;99113.41;5107983;28;20020;-31
2023/08/29 09:01:41;;;;;;;11.15;6.30;;;;;;;32.87;30.54;99108.69;5106771;28;20024;-31
2023/08/29 09:04:07;;;;;;;9.48;6.40;;;;;;;33.02;30.00;99096.47;5107911;28;20082;-30
2023/08/29 09:06:34;;;;;;;9.38;6.68;;;;;;;33.14;30.53;99095.31;5107709;28;20122;-30
2023/08/29 09:09:19;;;;;;;12.18;6.43;;;;;;;33.49;29.66;99104.75;5107756;28;20034;-30
2023/08/29 09:11:56;;;;;;;11.32;6.55;;;;;;;33.91;30.05;99102.31;5107578;28;20016;-29
2023/08/29 09:14:23;;;;;;;;;;;;;;;33.75;30.04;99105.50;5107580;28;20092;-32
2023/08/29 09:16:58;;;;;;;11.50;6.93;;;;;;;33.40;30.41;99102.38;5107891;28;19913;-32
2023/08/29 09:19:25;;;;;;;8.77;6.78;;;;;;;33.55;29.85;99114.22;5107521;28;20038;-27
2023/08/29 09:21:51;;;;;;;9.68;6.07;;;;;;;33.76;30.03;99107.88;5107730;27;20031;-30
2023/08/29 09:24:28;;;;;;;8.98;5.90;;;;;;;34.16;29.16;99114.09;5107614;28;20019;-29
2023/08/29 09:26:56;;;;;;;12.23;6.20;;;;;;;34.11;29.57;99111.72;5107420;28;20043;-30
2023/08/29 09:29:22;;;;;;;10.23;6.40;;;;;;;33.97;30.02;99107.03;5107271;28;20089;-34
2023/08/29 09:31:48;;;;;;;9.77;5.93;;;;;;;34.29;29.56;99106.13;5107197;28;20469;-30
2023/08/29 09:34:43;;;;;;;8.75;5.88;;;;;;;34.48;28.83;99079.16;5107002;28;20022;-30
2023/08/29 09:37:11;;;;;;;10.45;6.00;;;;;;;34.70;28.91;99077.84;5097375;28;20031;-30
2023/08/29 09:39:37;;;;;;;10.43;7.25;;;;;;;35.19;29.11;99070.34;5106718;28;20020;-30
2023/08/29 09:42:09;;;;;;;10.02;6.60;;;;;;;34.88;28.20;99086.03;5107283;28;20034;-29
2023/08/29 09:44:36;;;;;;;9.55;6.22;;;;;;;34.56;28.61;99072.38;5106767;28;20045;-33
2023/08/29 09:47:05;;;;;;;9.98;6.00;;;;;;;34.75;28.51;99082.16;5107088;28;20043;-29
2023/08/29 09:49:43;;;;;;;10.32;6.65;;;;;;;34.60;28.55;99070.38;5106164;28;20129;-31
2023/08/29 09:52:13;;;;;;;11.45;6.07;;;;;;;34.96;28.67;99059.03;5106810;28;20421;-30
2023/08/29 09:54:47;;;;;;;10.73;6.25;;;;;;;34.99;27.75;99052.69;5106602;28;20492;-31
2023/08/29 09:57:21;;;;;;;10.70;7.35;;;;;;;35.08;27.61;99050.22;5106578;28;20024;-29
2023/08/29 09:59:47;;;;;;;11.52;6.78;;;;;;;35.15;28.04;99050.19;5106404;28;20038;-30
2023/08/29 10:02:14;;;;;;;11.15;6.82;;;;;;;35.31;27.68;99054.38;5106504;28;20031;-29
2023/08/29 10:04:46;;;;;;;9.23;6.60;;;;;;;35.50;28.19;99045.47;5106709;28;20027;-33
2023/08/29 10:07:26;;;;;;;13.50;6.30;;;;;;;35.87;27.00;99032.00;5106357;28;20519;-32
2023/08/29 10:09:52;;;;;;;8.98;6.55;;;;;;;35.74;27.15;99046.44;5106588;27;20031;-30
2023/08/29 10:12:19;;;;;;;11.73;6.35;;;;;;;35.80;27.71;99049.53;5106278;28;20433;-30
2023/08/29 10:14:45;;;;;;;9.65;5.65;;;;;;;35.74;26.96;99051.19;5106233;28;20476;-31
2023/08/29 10:17:12;;;;;;;9.80;5.88;;;;;;;35.93;26.52;99039.44;5106263;28;20041;-30
2023/08/29 10:19:39;;;;;;;9.35;6.13;;;;;;;36.26;25.78;99036.28;5106442;28;20566;-30
2023/08/29 10:22:07;;;;;;;8.93;6.17;;;;;;;35.97;26.25;99037.41;5106358;27;20024;-30
2023/08/29 10:24:36;;;;;;;8.45;5.28;;;;;;;36.12;26.39;99031.69;5106050;28;20504;-30
2023/08/29 10:27:02;;;;;;;9.43;5.32;;;;;;;36.00;26.84;99024.69;5105982;28;20066;-30
2023/08/29 10:29:29;;;;;;;10.98;6.15;;;;;;;35.75;26.85;99016.69;5105879;28;20480;-30
2023/08/29 10:31:55;;;;;;;11.73;5.68;;;;;;;35.41;27.15;99014.69;5105938;28;20039;-30
2023/08/29 10:34:21;;;;;;;12.40;5.40;;;;;;;35.60;26.94;99004.97;5106036;28;20039;-32
2023/08/29 10:36:46;;;;;;;11.07;4.97;;;;;;;35.74;26.18;99006.81;5106187;28;20032;-31
2023/08/29 10:39:15;;;;;;;9.35;5.78;;;;;;;35.66;26.36;99000.56;5105946;28;20023;-30
2023/08/29 10:41:45;;;;;;;12.30;5.18;;;;;;;35.86;26.41;99003.50;5105750;28;20032;-29
2023/08/29 10:44:44;;;;;;;10.82;6.60;;;;;;;36.38;26.47;98999.63;5105880;28;20051;-31
2023/08/29 10:47:16;;;;;;;12.70;5.68;;;;;;;36.22;26.15;99018.88;5102418;28;20964;-30
2023/08/29 10:49:46;;;;;;;11.88;5.30;;;;;;;36.16;25.90;99013.00;5103322;28;20047;-30
2023/08/29 10:52:14;;;;;;;10.15;6.32;;;;;;;36.47;25.59;99007.41;5105594;28;20070;-29
2023/08/29 10:54:42;;;;;;;11.27;5.15;;;;;;;36.31;25.61;98994.16;5105615;28;20457;-29
2023/08/29 10:57:28;;;;;;;10.40;5.75;;;;;;;36.71;24.72;98995.13;5105480;28;20024;-30
2023/08/29 10:59:55;;;;;;;9.73;5.23;;;;;;;36.76;25.89;98997.44;5105652;28;20039;-29
2023/08/29 11:02:31;;;;;;;11.93;5.28;;;;;;;37.13;24.93;98992.84;5105787;28;20465;-29
2023/08/29 11:05:02;;;;;;;10.77;4.70;;;;;;;36.57;23.93;98998.13;5105635;28;20031;-30
2023/08/29 11:07:28;;;;;;;8.88;5.18;;;;;;;36.53;24.93;98998.16;5105444;28;20034;-30
2023/08/29 11:10:12;;;;;;;10.32;5.03;;;;;;;35.87;25.51;99005.06;5105302;28;20028;-31
2023/08/29 11:13:01;;;;;;;9.75;5.90;;;;;;;36.25;25.68;98988.31;5105282;28;20832;-30
2023/08/29 11:15:48;;;;;;;11.40;5.40;;;;;;;36.54;25.78;98996.19;5105004;28;20073;-33
2023/08/29 11:18:32;;;;;;;8.85;5.03;;;;;;;36.65;24.55;98994.03;5105615;28;20024;-30
2023/08/29 11:21:08;;;;;;;8.85;4.70;;;;;;;36.49;24.80;98988.34;5105292;28;20032;-31
2023/08/29 11:23:40;;;;;;;10.45;4.90;;;;;;;37.26;25.36;98973.53;5106271;28;20594;-29
2023/08/29 11:26:06;;;;;;;10.93;4.95;;;;;;;37.01;24.18;98979.53;5109532;28;20023;-30
2023/08/29 11:28:38;;;;;;;16.53;5.47;;;;;;;36.76;25.10;98969.66;5109631;27;20024;-33
2023/08/29 11:31:05;;;;;;;10.80;5.43;;;;;;;37.15;24.24;98972.97;5109601;28;20024;-30